Davis Station, SC

10:26 AM EDT on August 27, 2016 (GMT -0400)
Santee Cooper Regional

Weather History for KMNI - February, 2013

Change the Weather History Date:

Monday, February 11, 2013

  Actual Average (KCKI) Record (KCKI)
Temperature  
Mean Temperature 60 °F -  
Max Temperature 68 °F 56 °F 68 °F (2013)
Min Temperature 51 °F 29 °F 23 °F (2016)
Degree Days  
Heating Degree Days 6    
Growing Degree Days 10 (Base 50)    
Moisture  
Dew Point 61 °F    
Average Humidity 98    
Maximum Humidity 100    
Minimum Humidity 78    
Precipitation  
Precipitation 1.05 in - - ()
Sea Level Pressure  
Sea Level Pressure 30.12 in    
Wind  
Wind Speed 5 mph (SSW)    
Max Wind Speed 12 mph    
Max Gust Speed 22 mph    
Visibility 8 miles    
Events      
Averages and records for this station are not official NWS values.
T = Trace of Precipitation, MM = Missing Value Source: NWS Daily Summary

Daily Weather History Graph

Daily Weather History Graph

Search for Another Location

Airport or City:

Trip Planner

Search our weather history database for the weather conditions in past years. The results will help you decide how hot, cold, wet, or windy it might be!

Date:

Astronomy

Feb. 11, 2013 Rise Set
Actual Time 7:08 AM EST 6:01 PM EST
Civil Twilight 6:43 AM EST 6:27 PM EST
Nautical Twilight 6:13 AM EST 6:56 PM EST
Astronomical Twilight 5:44 AM EST 7:25 PM EST
Moon 7:39 AM EST (2/11) 7:48 PM EST (2/11)
Length of Visible Light 11h 44m
Length of Day
10h 53m
Waxing Crescent, 3% of the Moon is Illuminated
Feb 11
Waxing Crescent
Feb 17
First Quarter
Feb 25
Full
Mar 4
Last Quarter
Mar 11
New

Hourly Weather History & Observations

Time (EST) Temp. Dew Point Humidity Pressure Visibility Wind Dir Wind Speed Gust Speed Precip Events Conditions
12:15 AM 51.8 °F 51.8 °F 100% 30.26 in 7.0 mi North 6.9 mph - N/A   Mostly Cloudy
12:35 AM 53.6 °F 51.8 °F 94% 30.26 in 7.0 mi NNE 4.6 mph - 0.03 in   Overcast
12:55 AM 53.6 °F 53.6 °F 100% 30.25 in 4.0 mi NNE 4.6 mph - 0.07 in   Overcast
1:15 AM 53.6 °F 53.6 °F 100% 30.24 in 4.0 mi Calm Calm - 0.03 in   Overcast
1:35 AM 53.6 °F 53.6 °F 100% 30.23 in 5.0 mi ENE 3.5 mph - 0.06 in   Overcast
1:55 AM 53.6 °F 53.6 °F 100% 30.23 in 4.0 mi Calm Calm - 0.09 in   Overcast
2:15 AM 53.6 °F 53.6 °F 100% 30.20 in 5.0 mi ESE 4.6 mph - 0.03 in   Overcast
2:35 AM 55.4 °F 55.4 °F 100% 30.20 in 7.0 mi Calm Calm - 0.06 in   Mostly Cloudy
2:55 AM 55.4 °F 55.4 °F 100% 30.18 in 5.0 mi Calm Calm - 0.10 in   Overcast
3:15 AM 55.4 °F 55.4 °F 100% 30.18 in 7.0 mi Calm Calm - 0.02 in   Overcast
3:35 AM 55.4 °F 55.4 °F 100% 30.16 in 7.0 mi ESE 3.5 mph - 0.02 in   Overcast
3:55 AM 55.4 °F 55.4 °F 100% 30.15 in 7.0 mi SE 3.5 mph - 0.04 in   Overcast
4:15 AM 55.4 °F 55.4 °F 100% 30.14 in 7.0 mi SSE 3.5 mph - 0.01 in   Overcast
4:35 AM 57.2 °F 57.2 °F 100% 30.13 in 7.0 mi SSE 4.6 mph - 0.02 in   Overcast
4:55 AM 59.0 °F 59.0 °F 100% 30.13 in 7.0 mi South 4.6 mph - 0.04 in   Overcast
5:15 AM 59.0 °F 59.0 °F 100% 30.14 in 7.0 mi South 5.8 mph - 0.01 in   Overcast
5:35 AM 59.0 °F 59.0 °F 100% 30.14 in 7.0 mi South 5.8 mph - 0.02 in   Overcast
5:55 AM 59.0 °F 59.0 °F 100% 30.14 in 7.0 mi South 5.8 mph - 0.04 in   Overcast
6:15 AM 59.0 °F 59.0 °F 100% 30.15 in 5.0 mi South 5.8 mph - 0.02 in   Overcast
6:35 AM 60.8 °F 60.8 °F 100% 30.14 in 5.0 mi South 6.9 mph - 0.05 in   Overcast
6:55 AM 60.8 °F 60.8 °F 100% 30.14 in 7.0 mi South 6.9 mph - 0.08 in   Overcast
7:15 AM 60.8 °F 60.8 °F 100% 30.15 in 7.0 mi South 5.8 mph - 0.01 in   Overcast
7:35 AM 60.8 °F 60.8 °F 100% 30.14 in 7.0 mi SSW 6.9 mph - 0.02 in   Overcast
7:55 AM 62.6 °F 62.6 °F 100% 30.15 in 10.0 mi SSW 9.2 mph - 0.03 in   Overcast
8:15 AM 62.6 °F 62.6 °F 100% 30.15 in 7.0 mi SSW 9.2 mph 16.1 mph 0.02 in   Overcast
8:35 AM 62.6 °F 62.6 °F 100% 30.15 in 5.0 mi South 10.4 mph - 0.03 in   Overcast
8:55 AM 62.6 °F 62.6 °F 100% 30.15 in 5.0 mi SSW 8.1 mph - 0.05 in   Overcast
9:15 AM 62.6 °F 62.6 °F 100% 30.15 in 5.0 mi SSW 11.5 mph 17.3 mph 0.01 in   Mostly Cloudy
9:35 AM 62.6 °F 62.6 °F 100% 30.15 in 10.0 mi SSW 8.1 mph 16.1 mph 0.01 in   Mostly Cloudy
9:55 AM 62.6 °F 62.6 °F 100% 30.15 in 5.0 mi South 8.1 mph - 0.03 in   Overcast
10:15 AM 62.6 °F 62.6 °F 100% 30.15 in 4.0 mi SSW 9.2 mph 17.3 mph 0.06 in   Overcast
10:35 AM 62.6 °F 62.6 °F 100% 30.15 in 4.0 mi South 8.1 mph 16.1 mph 0.13 in   Overcast
10:55 AM 62.6 °F 62.6 °F 100% 30.14 in 7.0 mi South 8.1 mph - 0.14 in   Overcast
11:15 AM 62.6 °F 62.6 °F 100% 30.13 in 7.0 mi SSW 6.9 mph - 0.01 in   Overcast
11:35 AM 62.6 °F 62.6 °F 100% 30.12 in 10.0 mi South 6.9 mph - 0.01 in   Overcast
11:55 AM 64.4 °F 62.6 °F 94% 30.10 in 10.0 mi South 8.1 mph - 0.01 in   Mostly Cloudy
12:15 PM 64.4 °F 62.6 °F 94% 30.09 in 10.0 mi SSW 8.1 mph - N/A   Scattered Clouds
12:35 PM 64.4 °F 64.4 °F 100% 30.08 in 10.0 mi SSW 8.1 mph - N/A   Mostly Cloudy
12:55 PM 66.2 °F 64.4 °F 94% 30.08 in 10.0 mi SSW 10.4 mph 16.1 mph N/A   Overcast
1:15 PM 68.0 °F 64.4 °F 88% 30.08 in 10.0 mi SW 10.4 mph 21.9 mph N/A   Overcast
1:35 PM 68.0 °F 60.8 °F 78% 30.08 in 10.0 mi SSW 8.1 mph - N/A   Overcast
1:55 PM 68.0 °F 64.4 °F 88% 30.08 in 10.0 mi SW 9.2 mph 16.1 mph N/A   Overcast
2:15 PM 68.0 °F 64.4 °F 88% 30.07 in 10.0 mi SSW 9.2 mph - N/A   Overcast
2:35 PM 68.0 °F 64.4 °F 88% 30.06 in 10.0 mi SW 8.1 mph - N/A   Overcast
3:15 PM 68.0 °F 64.4 °F 88% 30.07 in 10.0 mi SW 5.8 mph - N/A   Overcast
3:35 PM 68.0 °F 64.4 °F 88% 30.06 in 10.0 mi SSW 6.9 mph - N/A   Overcast
3:55 PM 68.0 °F 64.4 °F 88% 30.06 in 10.0 mi SSW 8.1 mph - N/A   Overcast
4:15 PM 66.2 °F 62.6 °F 88% 30.06 in 10.0 mi SSW 8.1 mph - N/A   Scattered Clouds
4:35 PM 66.2 °F 64.4 °F 94% 30.06 in 10.0 mi SSW 8.1 mph - N/A   Mostly Cloudy
4:55 PM 64.4 °F 64.4 °F 100% 30.06 in 10.0 mi SSW 6.9 mph - N/A   Overcast
5:55 PM 64.4 °F 64.4 °F 100% 30.07 in 7.0 mi SW 4.6 mph - 0.02 in   Mostly Cloudy
6:15 PM 64.4 °F 64.4 °F 100% 30.07 in 7.0 mi SW 5.8 mph - 0.01 in   Mostly Cloudy
6:35 PM 64.4 °F 64.4 °F 100% 30.07 in 10.0 mi WSW 3.5 mph - 0.02 in   Scattered Clouds
6:55 PM 64.4 °F 62.6 °F 94% 30.08 in 10.0 mi WSW 3.5 mph - 0.02 in   Scattered Clouds
7:15 PM 62.6 °F 62.6 °F 100% 30.09 in 10.0 mi Calm Calm - N/A   Mostly Cloudy
7:35 PM 62.6 °F 62.6 °F 100% 30.10 in 10.0 mi SSW 5.8 mph - 0.01 in   Overcast
7:55 PM 62.6 °F 62.6 °F 100% 30.08 in 10.0 mi South 3.5 mph - 0.02 in   Overcast
8:15 PM 62.6 °F 60.8 °F 94% 30.09 in 10.0 mi Calm Calm - 0.01 in   Mostly Cloudy
8:35 PM 62.6 °F 62.6 °F 100% 30.07 in 7.0 mi South 4.6 mph - 0.02 in   Scattered Clouds
8:55 PM 62.6 °F 62.6 °F 100% 30.06 in 7.0 mi South 5.8 mph - 0.03 in   Scattered Clouds
9:15 PM 62.6 °F 62.6 °F 100% 30.07 in 10.0 mi SSW 5.8 mph - 0.01 in   Scattered Clouds
9:35 PM 62.6 °F 62.6 °F 100% 30.07 in 10.0 mi SW 4.6 mph - 0.02 in   Mostly Cloudy
9:55 PM 62.6 °F 62.6 °F 100% 30.05 in 10.0 mi SSW 4.6 mph - 0.03 in   Mostly Cloudy
10:15 PM 62.6 °F 62.6 °F 100% 30.05 in 10.0 mi SW 4.6 mph - 0.01 in   Mostly Cloudy
10:35 PM 62.6 °F 62.6 °F 100% 30.07 in 5.0 mi SW 4.6 mph - 0.06 in   Overcast
10:55 PM 62.6 °F 62.6 °F 100% 30.07 in 5.0 mi SW 6.9 mph - 0.12 in   Overcast
11:15 PM 60.8 °F 60.8 °F 100% 30.07 in 5.0 mi WNW 6.9 mph - 0.04 in   Overcast
11:35 PM 60.8 °F 59.0 °F 94% 30.08 in 10.0 mi WSW 6.9 mph - 0.06 in   Overcast
11:55 PM 60.8 °F 59.0 °F 94% 30.06 in 7.0 mi West 5.8 mph - 0.09 in   Overcast